Choctaw, Mississippi
Current Conditions -  °F | °C
As of 4:56 PM on Friday 31 Oct 2014 (Local Time) from KNMM Reporting Station
Scattered Clouds Scattered Clouds  
Wind Chill: 19°   Ceiling: Unl
Heat Index: 19°   Visibility: 10mi
Dew Point:   Wind: 23mph
Humidity: 47%   Direction: 330°NNW
Pressure: 30.03"   Gusts: 30mph
Location:  32.751°N, 89.1208°W
Report Text: KNMM 312156Z 33020G26KT 10SM SCT049 19/07 A3003 RMK AO2 PK WND 35026/2154 SLP177 T01890072 $
Loading
Personal Weather Stations






























Interactive Weather Map
Tropical Storm Tracking
New forecast layout! Learn more

10-Day Weather Forecast

Advertisements
Track Severe Weather on mobile